Time;durP1;ratioP1;P1;durP2;ratioP2;P2;SDS_P1;SDS_P2;PMS_P1;PMS_P2;Temp;Humidity;BMP_temperature;BMP_pressure;BME280_temperature;BME280_humidity;BME280_pressure;Samples;Min_cycle;Max_cycle;Signal;HPM_P1;HPM_P2
2024/01/16 00:01:18;;;;;;;22.05;12.15;;;;;;;3.05;62.82;100820.66;5030618;28;20053;-53
2024/01/16 00:03:45;;;;;;;24.85;12.77;;;;;;;2.93;62.63;100820.03;5027897;28;20053;-58
2024/01/16 00:06:12;;;;;;;23.98;11.73;;;;;;;3.05;62.71;100820.66;5014575;28;20050;-56
2024/01/16 00:08:40;;;;;;;22.27;12.95;;;;;;;3.07;62.16;100810.28;5009448;28;20084;-58
2024/01/16 00:11:07;;;;;;;23.00;13.00;;;;;;;2.95;62.46;100812.38;5009684;28;20054;-59
2024/01/16 00:13:34;;;;;;;25.67;13.10;;;;;;;3.01;62.53;100814.91;5010202;28;20056;-56
2024/01/16 00:16:06;;;;;;;23.30;13.10;;;;;;;3.05;62.31;100805.13;5029750;28;20485;-58
2024/01/16 00:18:34;;;;;;;24.35;14.18;;;;;;;2.86;62.45;100800.38;5009419;28;20076;-58
2024/01/16 00:21:02;;;;;;;23.98;13.40;;;;;;;3.01;62.79;100798.59;5023444;28;20065;-58
2024/01/16 00:23:32;;;;;;;27.60;13.50;;;;;;;2.95;62.58;100801.50;5012514;28;20054;-57
2024/01/16 00:25:59;;;;;;;;;;;;;;;3.13;62.10;100806.53;5010161;28;20065;-56
2024/01/16 00:28:26;;;;;;;30.67;14.70;;;;;;;3.02;62.25;100804.81;5009615;28;19936;-58
2024/01/16 00:30:54;;;;;;;26.73;14.35;;;;;;;2.87;62.74;100805.56;5009521;28;20657;-55
2024/01/16 00:33:21;;;;;;;26.35;14.40;;;;;;;3.08;62.31;100803.78;5024704;28;20057;-58
2024/01/16 00:35:49;;;;;;;28.30;14.20;;;;;;;3.14;62.17;100798.13;5028331;28;20041;-56
2024/01/16 00:38:17;;;;;;;28.70;14.85;;;;;;;2.99;62.20;100802.63;5028905;28;20053;-57
2024/01/16 00:40:44;;;;;;;26.65;14.70;;;;;;;2.78;63.17;100809.84;5027462;28;20068;-54
2024/01/16 00:43:12;;;;;;;29.00;15.05;;;;;;;2.85;63.14;100810.44;5028815;28;20104;-57
2024/01/16 00:45:40;;;;;;;30.65;14.77;;;;;;;3.01;62.92;100805.91;5028789;28;20441;-57
2024/01/16 00:48:10;;;;;;;24.08;14.02;;;;;;;3.21;62.23;100795.97;5039405;28;20576;-58
2024/01/16 00:50:38;;;;;;;27.83;13.77;;;;;;;3.16;62.25;100797.84;5026956;28;20056;-58
2024/01/16 00:53:05;;;;;;;28.00;14.32;;;;;;;3.14;62.41;100791.84;5028167;28;20060;-57
2024/01/16 00:55:32;;;;;;;26.73;13.90;;;;;;;2.93;62.96;100790.09;5028327;28;20509;-57
2024/01/16 00:58:00;;;;;;;28.58;13.95;;;;;;;3.01;62.99;100795.03;5025823;28;20080;-58
2024/01/16 01:00:30;;;;;;;27.60;14.77;;;;;;;2.95;62.98;100798.78;5028584;28;20053;-56
2024/01/16 01:02:58;;;;;;;31.10;14.25;;;;;;;2.78;63.42;100793.50;5028831;28;20072;-56
2024/01/16 01:05:28;;;;;;;28.30;15.43;;;;;;;2.67;63.91;100802.66;5028591;28;20056;-58
2024/01/16 01:07:56;;;;;;;30.42;15.10;;;;;;;2.75;64.15;100804.91;5020583;28;20042;-58
2024/01/16 01:10:23;;;;;;;23.02;13.45;;;;;;;2.75;63.96;100809.53;5025769;28;20053;-58
2024/01/16 01:12:54;;;;;;;25.25;14.07;;;;;;;2.67;64.43;100794.50;5015233;28;20060;-56
2024/01/16 01:15:21;;;;;;;24.75;13.93;;;;;;;2.52;65.08;100782.69;5028366;28;20061;-59
2024/01/16 01:17:49;;;;;;;25.77;14.05;;;;;;;2.71;64.96;100770.31;5008709;28;20085;-57
2024/01/16 01:20:17;;;;;;;27.60;14.88;;;;;;;2.66;64.45;100770.28;5022736;28;20389;-58
2024/01/16 01:22:45;;;;;;;25.85;13.63;;;;;;;2.54;65.00;100775.09;5010863;28;20046;-58
2024/01/16 01:25:13;;;;;;;30.10;14.77;;;;;;;2.58;65.11;100781.66;5008483;28;20057;-56
2024/01/16 01:27:40;;;;;;;25.83;13.38;;;;;;;2.76;64.79;100784.78;5007801;28;20533;-54
2024/01/16 01:30:10;;;;;;;28.17;12.65;;;;;;;2.62;64.67;100789.03;5023000;28;20080;-59
2024/01/16 01:32:38;;;;;;;24.30;13.73;;;;;;;2.80;64.70;100796.78;5007509;28;20060;-56
2024/01/16 01:35:07;;;;;;;30.50;14.02;;;;;;;2.74;64.54;100792.38;5037536;28;20056;-58
2024/01/16 01:37:34;;;;;;;27.00;13.43;;;;;;;2.67;64.71;100793.69;5045587;28;20471;-57
2024/01/16 01:40:01;;;;;;;25.67;14.27;;;;;;;2.54;65.08;100794.13;5047228;28;20056;-61
2024/01/16 01:42:29;;;;;;;22.58;13.52;;;;;;;2.57;65.02;100797.16;5028852;28;20084;-58
2024/01/16 01:44:56;;;;;;;31.17;14.18;;;;;;;2.65;65.23;100806.72;5032450;28;20800;-58
2024/01/16 01:47:24;;;;;;;27.77;14.18;;;;;;;2.73;64.70;100820.66;5027648;28;20045;-59
2024/01/16 01:49:52;;;;;;;26.05;13.40;;;;;;;2.80;65.09;100820.44;5017316;28;20057;-58
2024/01/16 01:52:19;;;;;;;27.83;13.98;;;;;;;2.87;64.49;100812.88;5018689;28;20045;-59
2024/01/16 01:54:46;;;;;;;25.33;12.27;;;;;;;2.48;65.65;100816.88;5043245;28;20064;-56
2024/01/16 01:57:13;;;;;;;23.48;11.70;;;;;;;2.47;65.93;100817.97;5027200;28;20061;-58
2024/01/16 01:59:40;;;;;;;23.13;12.25;;;;;;;2.60;65.82;100815.66;5025749;28;20504;-58
2024/01/16 02:02:08;;;;;;;22.30;11.20;;;;;;;2.58;65.79;100819.72;5026928;28;20060;-54
2024/01/16 02:04:36;;;;;;;21.10;11.05;;;;;;;2.56;65.85;100816.44;5027375;28;20552;-57
2024/01/16 02:07:04;;;;;;;26.60;10.73;;;;;;;2.25;65.98;100815.31;5024995;28;20061;-56
2024/01/16 02:09:31;;;;;;;20.15;10.15;;;;;;;2.11;66.91;100822.25;5025281;28;20053;-60
2024/01/16 02:11:59;;;;;;;21.42;10.20;;;;;;;2.23;67.13;100814.78;5025672;28;20053;-59
2024/01/16 02:14:26;;;;;;;19.38;10.50;;;;;;;2.35;66.36;100815.44;5025559;28;20068;-58
2024/01/16 02:16:53;;;;;;;18.98;9.88;;;;;;;2.48;66.05;100811.44;5027269;28;20057;-58
2024/01/16 02:19:20;;;;;;;29.55;10.63;;;;;;;2.27;66.00;100805.84;5027763;28;20629;-58
2024/01/16 02:21:48;;;;;;;18.60;9.23;;;;;;;2.20;66.32;100812.53;5027534;28;20057;-59
2024/01/16 02:24:18;;;;;;;18.80;9.90;;;;;;;2.17;66.70;100802.19;5026476;28;20239;-58
2024/01/16 02:26:46;;;;;;;20.92;9.57;;;;;;;2.13;66.79;100801.06;5027023;28;20053;-60
2024/01/16 02:29:13;;;;;;;23.35;10.00;;;;;;;2.31;66.65;100795.28;5027239;28;20054;-63
2024/01/16 02:31:40;;;;;;;19.58;10.10;;;;;;;2.36;66.33;100798.03;5009810;28;20069;-57
2024/01/16 02:34:08;;;;;;;22.33;9.85;;;;;;;2.44;66.23;100785.88;5025029;28;20828;-59
2024/01/16 02:36:36;;;;;;;18.83;9.48;;;;;;;2.50;65.81;100782.13;5027259;28;20054;-60
2024/01/16 02:39:03;;;;;;;20.25;9.85;;;;;;;2.31;66.39;100778.97;5025480;28;20060;-59
2024/01/16 02:41:30;;;;;;;23.67;10.10;;;;;;;2.34;66.65;100778.44;5027638;28;20068;-57
2024/01/16 02:43:57;;;;;;;17.45;9.30;;;;;;;2.35;66.68;100777.38;5025194;28;20139;-55
2024/01/16 02:46:25;;;;;;;15.95;8.60;;;;;;;2.32;66.02;100771.66;5027701;28;20053;-59
2024/01/16 02:48:52;;;;;;;18.17;9.30;;;;;;;2.57;65.96;100769.13;5026569;28;20606;-59
2024/01/16 02:51:19;;;;;;;16.48;8.90;;;;;;;2.56;65.37;100767.50;5027296;28;20121;-57
2024/01/16 02:54:11;;;;;;;19.33;9.45;;;;;;;2.40;65.91;100763.84;5045953;28;20053;-60
2024/01/16 02:57:09;;;;;;;19.75;9.98;;;;;;;2.36;66.14;100759.16;5047429;28;20052;-56
2024/01/16 02:59:37;;;;;;;20.60;9.40;;;;;;;2.44;65.96;100761.41;5046901;28;20052;-60
2024/01/16 03:02:04;;;;;;;18.95;9.68;;;;;;;2.39;65.75;100759.47;5045542;28;20059;-57
2024/01/16 03:04:31;;;;;;;16.70;8.70;;;;;;;2.37;65.89;100755.38;5047036;28;20056;-58
2024/01/16 03:06:58;;;;;;;20.85;9.93;;;;;;;2.39;65.71;100759.47;5046483;28;20057;-56
2024/01/16 03:09:38;;;;;;;17.30;9.40;;;;;;;2.38;65.88;100748.84;5044250;28;20064;-60
2024/01/16 03:12:28;;;;;;;23.27;10.55;;;;;;;2.44;66.01;100750.53;5024842;28;20061;-57
2024/01/16 03:14:56;;;;;;;18.50;9.60;;;;;;;2.39;65.86;100745.06;5026810;28;20053;-58
2024/01/16 03:17:40;;;;;;;23.00;10.30;;;;;;;2.33;65.91;100746.91;5027111;28;20080;-65
2024/01/16 03:20:28;;;;;;;21.00;10.13;;;;;;;2.50;65.34;100746.78;5013238;28;20057;-58
2024/01/16 03:22:56;;;;;;;20.75;10.60;;;;;;;2.42;65.34;100745.38;5026589;28;20061;-57
2024/01/16 03:26:08;;;;;;;29.42;11.57;;;;;;;2.30;65.59;100747.44;5026489;28;20062;-60
2024/01/16 03:28:37;;;;;;;24.20;10.52;;;;;;;2.29;65.83;100746.63;5007119;28;20789;-58
2024/01/16 03:31:04;;;;;;;22.00;10.93;;;;;;;2.29;65.77;100749.34;5026982;28;20057;-56
2024/01/16 03:33:34;;;;;;;19.63;11.00;;;;;;;2.19;66.13;100745.72;5026915;28;20049;-56
2024/01/16 03:36:01;;;;;;;21.15;10.93;;;;;;;2.14;66.32;100756.53;5026187;28;20058;-55
2024/01/16 03:38:28;;;;;;;24.25;11.43;;;;;;;2.25;66.10;100753.63;5027050;28;20069;-57
2024/01/16 03:40:56;;;;;;;21.90;11.02;;;;;;;2.25;66.35;100747.38;5026265;28;20072;-57
2024/01/16 03:43:23;;;;;;;23.67;11.38;;;;;;;2.19;66.13;100745.72;5026376;28;20065;-56
2024/01/16 03:45:51;;;;;;;23.00;11.43;;;;;;;2.17;66.24;100748.69;5026708;28;20066;-57
2024/01/16 03:48:18;;;;;;;20.77;10.32;;;;;;;2.09;66.29;100738.25;5026435;28;20084;-55
2024/01/16 03:50:47;;;;;;;22.67;10.57;;;;;;;1.93;66.43;100738.38;5026694;28;20072;-56
2024/01/16 03:53:14;;;;;;;22.05;11.00;;;;;;;2.07;67.00;100737.72;5026205;28;20693;-57
2024/01/16 03:55:41;;;;;;;19.08;10.98;;;;;;;2.19;66.22;100741.09;5027180;28;20057;-56
2024/01/16 03:58:09;;;;;;;20.30;10.60;;;;;;;2.23;65.86;100735.97;5028224;28;20576;-57
2024/01/16 04:00:39;;;;;;;23.67;11.05;;;;;;;2.24;65.32;100730.28;5028996;28;20076;-57
2024/01/16 04:03:07;;;;;;;19.90;11.15;;;;;;;2.34;65.42;100729.53;5027736;28;20058;-57
2024/01/16 04:05:34;;;;;;;19.55;10.70;;;;;;;2.45;65.46;100733.16;5029657;28;20057;-60
2024/01/16 04:08:02;;;;;;;18.42;9.98;;;;;;;2.43;64.91;100738.84;5030691;28;20049;-56
2024/01/16 04:10:29;;;;;;;21.83;10.75;;;;;;;2.32;64.65;100733.59;5027758;28;20436;-56
2024/01/16 04:13:00;;;;;;;21.58;10.85;;;;;;;2.19;65.01;100738.38;5030192;28;20053;-57
2024/01/16 04:15:28;;;;;;;23.02;10.50;;;;;;;2.47;64.54;100739.97;5028970;28;20590;-57
2024/01/16 04:17:55;;;;;;;18.85;10.70;;;;;;;2.36;64.34;100735.53;5030194;28;20574;-59
2024/01/16 04:20:57;;;;;;;22.45;10.88;;;;;;;2.04;64.72;100726.56;5029825;28;20072;-57
2024/01/16 04:24:35;;;;;;;21.98;10.48;;;;;;;2.19;64.85;100722.09;5033788;28;20040;-55
2024/01/16 04:30:46;;;;;;;23.20;10.15;;;;;;;2.18;64.30;100715.00;5023858;28;20072;-62
2024/01/16 04:33:28;;;;;;;20.05;9.05;;;;;;;2.02;64.12;100713.19;5010099;28;20053;-58
2024/01/16 04:35:56;;;;;;;19.58;9.98;;;;;;;1.94;63.87;100700.09;5044069;28;20044;-61
2024/01/16 04:38:23;;;;;;;19.83;9.75;;;;;;;2.05;63.94;100706.44;5028966;28;20072;-59
2024/01/16 04:40:50;;;;;;;18.25;9.90;;;;;;;1.91;63.91;100697.09;5028751;28;20137;-58
2024/01/16 04:43:18;;;;;;;17.55;10.10;;;;;;;1.94;63.80;100700.09;5029383;28;20068;-57
2024/01/16 04:45:46;;;;;;;18.77;9.55;;;;;;;2.03;63.81;100695.84;5027500;28;20061;-59
2024/01/16 04:48:13;;;;;;;16.73;8.98;;;;;;;2.20;63.42;100701.97;5027404;28;20063;-59
2024/01/16 04:50:40;;;;;;;18.27;9.98;;;;;;;2.12;63.33;100690.75;5028798;28;20056;-59
2024/01/16 04:53:11;;;;;;;21.60;10.57;;;;;;;2.23;62.90;100696.00;5030669;28;20064;-57
2024/01/16 04:55:38;;;;;;;17.30;9.48;;;;;;;2.26;63.00;100690.06;5028010;28;20057;-56
2024/01/16 04:58:06;;;;;;;18.45;10.10;;;;;;;2.08;63.11;100689.63;5028950;28;20053;-58
2024/01/16 05:00:33;;;;;;;24.17;9.23;;;;;;;2.17;63.31;100688.09;5028436;28;20049;-59
2024/01/16 05:03:04;;;;;;;19.08;9.70;;;;;;;2.26;62.99;100676.50;5028990;28;20610;-58
2024/01/16 05:05:31;;;;;;;21.50;9.85;;;;;;;2.17;62.88;100669.06;5027624;28;20053;-58
2024/01/16 05:08:01;;;;;;;21.00;9.57;;;;;;;2.26;63.10;100667.50;5028549;28;20056;-58
2024/01/16 05:10:28;;;;;;;28.40;9.93;;;;;;;2.49;62.48;100659.00;5027974;28;20071;-57
2024/01/16 05:12:55;;;;;;;23.60;10.13;;;;;;;2.57;62.06;100660.38;5026920;28;20061;-57
2024/01/16 05:15:22;;;;;;;24.67;10.52;;;;;;;2.66;61.87;100656.91;5028808;28;20065;-58
2024/01/16 05:17:49;;;;;;;25.88;10.23;;;;;;;2.58;61.73;100651.16;5026879;28;20064;-59
2024/01/16 05:20:17;;;;;;;21.83;11.40;;;;;;;2.65;61.84;100652.53;5028264;28;20056;-56
2024/01/16 05:22:44;;;;;;;21.65;10.98;;;;;;;2.71;61.76;100645.25;5026569;28;20045;-59
2024/01/16 05:25:12;;;;;;;21.60;9.82;;;;;;;2.80;61.17;100643.66;5008962;28;20057;-59
2024/01/16 05:27:43;;;;;;;29.75;10.27;;;;;;;2.85;60.69;100639.06;5028899;28;20064;-61
2024/01/16 05:30:10;;;;;;;29.00;10.40;;;;;;;2.87;60.50;100639.63;5026462;28;20072;-55
2024/01/16 05:32:39;;;;;;;23.23;10.75;;;;;;;2.79;60.70;100642.84;5026616;28;20056;-57
2024/01/16 05:35:09;;;;;;;27.38;11.15;;;;;;;2.76;60.91;100646.09;5042578;28;20512;-55
2024/01/16 05:37:36;;;;;;;20.67;10.30;;;;;;;2.76;60.52;100651.53;5044035;28;20106;-60
2024/01/16 05:40:07;;;;;;;25.13;10.57;;;;;;;2.75;60.67;100647.19;5038852;28;20060;-60
2024/01/16 05:42:37;;;;;;;25.10;10.52;;;;;;;2.49;60.84;100650.00;5028527;28;20061;-58
2024/01/16 05:45:05;;;;;;;27.15;10.45;;;;;;;1.96;62.40;100648.25;5028148;28;20049;-59
2024/01/16 05:47:33;;;;;;;18.92;10.80;;;;;;;1.92;63.23;100647.94;5027322;28;20065;-58
2024/01/16 05:50:00;;;;;;;27.20;10.93;;;;;;;2.00;63.16;100644.75;5027713;28;20053;-61
2024/01/16 05:52:27;;;;;;;22.75;10.70;;;;;;;2.23;63.20;100638.94;5026263;28;20060;-59
2024/01/16 05:54:57;;;;;;;24.10;10.68;;;;;;;2.45;62.64;100627.97;5028196;28;20061;-57
2024/01/16 05:57:24;;;;;;;26.10;9.77;;;;;;;2.02;63.16;100639.88;5029740;28;20046;-62
2024/01/16 05:59:52;;;;;;;19.27;9.00;;;;;;;1.99;64.32;100642.28;5028199;28;20065;-58
2024/01/16 06:02:19;;;;;;;17.20;8.45;;;;;;;1.84;65.35;100639.44;5014796;28;20053;-59
2024/01/16 06:04:47;;;;;;;19.33;8.38;;;;;;;1.99;65.52;100632.25;5006756;28;20061;-58
2024/01/16 06:07:14;;;;;;;16.60;7.00;;;;;;;1.76;66.26;100634.50;5013100;28;20054;-57
2024/01/16 06:09:42;;;;;;;13.68;6.63;;;;;;;1.90;66.09;100625.66;5016662;28;20061;-59
2024/01/16 06:12:09;;;;;;;12.70;6.80;;;;;;;1.63;66.89;100630.31;5028007;28;20064;-60
2024/01/16 06:14:36;;;;;;;16.17;6.75;;;;;;;2.10;66.05;100630.44;5022235;28;20057;-59
2024/01/16 06:17:09;;;;;;;14.90;7.10;;;;;;;2.25;65.65;100625.94;5010311;28;20799;-58
2024/01/16 06:19:37;;;;;;;14.40;7.97;;;;;;;2.08;65.45;100625.25;5021977;28;20121;-58
2024/01/16 06:22:05;;;;;;;21.75;8.68;;;;;;;2.12;65.74;100626.38;5027968;28;20049;-60
2024/01/16 06:24:36;;;;;;;16.42;7.28;;;;;;;1.95;66.51;100624.88;5025292;28;20057;-58
2024/01/16 06:27:06;;;;;;;14.38;7.88;;;;;;;1.94;66.39;100626.78;5027675;28;20845;-59
2024/01/16 06:29:33;;;;;;;17.77;7.85;;;;;;;1.71;66.81;100624.38;5027114;28;20049;-57
2024/01/16 06:32:03;;;;;;;18.13;7.72;;;;;;;1.73;66.83;100635.00;5041183;28;20421;-57
2024/01/16 06:34:30;;;;;;;17.13;7.85;;;;;;;1.75;66.78;100628.25;5034877;28;20412;-56
2024/01/16 06:36:58;;;;;;;13.10;7.07;;;;;;;1.86;66.60;100629.16;5032322;28;20057;-58
2024/01/16 06:39:25;;;;;;;16.48;7.43;;;;;;;1.94;66.68;100629.50;5027877;28;20064;-59
2024/01/16 06:41:56;;;;;;;15.60;7.55;;;;;;;2.04;65.98;100632.28;5026395;28;20049;-58
2024/01/16 06:44:23;;;;;;;14.90;7.03;;;;;;;1.90;66.26;100639.22;5026749;28;20053;-60
2024/01/16 06:46:51;;;;;;;17.25;7.82;;;;;;;1.91;66.78;100635.44;5028040;28;20129;-61
2024/01/16 06:49:18;;;;;;;15.23;7.57;;;;;;;1.85;66.69;100644.59;5025284;28;20479;-60
2024/01/16 06:51:45;;;;;;;14.45;7.55;;;;;;;1.84;67.28;100639.44;5026592;28;20053;-60
2024/01/16 06:54:13;;;;;;;21.70;8.27;;;;;;;1.74;67.12;100633.94;5027049;28;20057;-56
2024/01/16 06:56:40;;;;;;;15.75;7.60;;;;;;;1.85;67.32;100644.59;5015539;28;20050;-60
2024/01/16 06:59:07;;;;;;;15.65;7.20;;;;;;;1.94;67.06;100639.53;5006987;28;20752;-64
2024/01/16 07:01:38;;;;;;;16.00;8.05;;;;;;;1.84;67.09;100632.13;5033865;28;20062;-59
2024/01/16 07:04:05;;;;;;;17.67;8.45;;;;;;;2.15;66.82;100627.75;5009128;28;20617;-60
2024/01/16 07:06:36;;;;;;;23.40;7.63;;;;;;;1.84;66.62;100636.72;5026752;28;20061;-60
2024/01/16 07:09:05;;;;;;;20.15;8.18;;;;;;;2.08;66.62;100641.56;5024325;28;20545;-60
2024/01/16 07:11:32;;;;;;;14.60;7.57;;;;;;;2.23;66.06;100630.00;5026719;28;20088;-59
2024/01/16 07:13:59;;;;;;;16.50;7.60;;;;;;;2.23;65.79;100638.16;5021355;28;20054;-60
2024/01/16 07:16:26;;;;;;;17.80;7.65;;;;;;;1.93;66.04;100652.31;5007649;28;20054;-52
2024/01/16 07:18:55;;;;;;;15.82;7.75;;;;;;;1.94;66.50;100645.78;4988788;28;20501;-56
2024/01/16 07:21:25;;;;;;;16.42;8.15;;;;;;;1.90;67.02;100652.00;5022652;28;20057;-57
2024/01/16 07:23:52;;;;;;;18.83;8.05;;;;;;;1.75;66.89;100655.38;5028619;28;20420;-58
2024/01/16 07:26:30;;;;;;;15.73;7.68;;;;;;;1.68;67.59;100648.50;5029245;28;20057;-58
2024/01/16 07:29:10;;;;;;;16.80;7.53;;;;;;;1.88;67.07;100652.22;5027915;28;20056;-58
2024/01/16 07:31:52;;;;;;;15.18;7.20;;;;;;;1.85;66.91;100649.22;5009166;28;20073;-59
2024/01/16 07:34:21;;;;;;;18.77;7.40;;;;;;;2.02;66.80;100648.00;5036394;28;20059;-56
2024/01/16 07:37:06;;;;;;;19.48;8.38;;;;;;;2.18;65.97;100646.22;5027685;28;20421;-58
2024/01/16 07:39:34;;;;;;;18.42;8.38;;;;;;;2.18;65.78;100651.66;5010854;28;20058;-56
2024/01/16 07:42:01;;;;;;;19.67;7.97;;;;;;;2.43;65.39;100646.44;5010237;28;20504;-58
2024/01/16 07:44:30;;;;;;;15.98;7.43;;;;;;;2.03;65.47;100649.66;5019889;28;20053;-58
2024/01/16 07:46:57;;;;;;;19.33;7.88;;;;;;;2.23;65.43;100638.16;5026106;28;20706;-58
2024/01/16 07:49:25;;;;;;;15.43;8.07;;;;;;;2.07;65.45;100634.50;5017028;28;20056;-58
2024/01/16 07:51:53;;;;;;;17.33;8.27;;;;;;;2.08;65.95;100635.28;5029337;28;20049;-57
2024/01/16 07:54:21;;;;;;;16.27;7.72;;;;;;;2.08;65.94;100647.00;5030934;28;20132;-59
2024/01/16 07:56:48;;;;;;;17.90;7.97;;;;;;;2.10;65.95;100653.00;5030963;28;20053;-57
2024/01/16 07:59:15;;;;;;;19.27;8.63;;;;;;;2.11;66.34;100648.38;5030079;28;20049;-59
2024/01/16 08:01:43;;;;;;;18.25;8.93;;;;;;;1.94;66.56;100650.38;5028164;28;20587;-58
2024/01/16 08:04:10;;;;;;;17.17;8.75;;;;;;;2.06;66.58;100651.84;5030103;28;20057;-59
2024/01/16 08:06:37;;;;;;;20.77;9.05;;;;;;;2.42;66.08;100654.84;5029937;28;20498;-59
2024/01/16 08:09:06;;;;;;;21.50;9.27;;;;;;;2.27;65.57;100650.94;5028169;28;20587;-57
2024/01/16 08:11:36;;;;;;;23.75;9.40;;;;;;;2.21;66.02;100654.69;5029449;28;20053;-59
2024/01/16 08:14:03;;;;;;;24.55;9.32;;;;;;;2.14;66.17;100651.38;5029652;28;20056;-60
2024/01/16 08:16:30;;;;;;;18.08;9.02;;;;;;;2.20;66.05;100652.22;5039929;28;20057;-59
2024/01/16 08:18:58;;;;;;;17.05;8.48;;;;;;;2.19;66.08;100643.28;5030081;28;20052;-60
2024/01/16 08:21:26;;;;;;;20.70;9.13;;;;;;;2.39;65.63;100639.06;5023546;28;20057;-59
2024/01/16 08:23:53;;;;;;;17.70;8.63;;;;;;;2.42;65.28;100636.66;5024743;28;20419;-54
2024/01/16 08:26:20;;;;;;;19.42;8.40;;;;;;;2.33;65.23;100637.38;5030235;28;20057;-58
2024/01/16 08:28:48;;;;;;;18.08;7.63;;;;;;;2.26;65.07;100643.88;5030095;28;20049;-58
2024/01/16 08:31:18;;;;;;;21.52;8.38;;;;;;;2.21;65.47;100656.59;5028250;28;20054;-61
2024/01/16 08:33:47;;;;;;;28.45;9.40;;;;;;;2.54;65.03;100660.91;5027423;28;20057;-59
2024/01/16 08:36:18;;;;;;;17.40;8.23;;;;;;;2.69;64.53;100659.09;5030217;28;20053;-57
2024/01/16 08:38:45;;;;;;;24.10;8.23;;;;;;;2.77;64.33;100666.75;5033168;28;20053;-56
2024/01/16 08:41:13;;;;;;;20.08;9.27;;;;;;;2.81;64.15;100667.03;5023258;28;20044;-59
2024/01/16 08:43:40;;;;;;;24.65;8.35;;;;;;;2.76;63.78;100656.97;5028084;28;20053;-57
2024/01/16 08:46:07;;;;;;;20.83;8.82;;;;;;;2.50;64.11;100666.06;5010592;28;20515;-55
2024/01/16 08:48:35;;;;;;;19.35;8.32;;;;;;;2.51;64.83;100656.81;5028432;28;20056;-57
2024/01/16 08:51:07;;;;;;;20.77;8.05;;;;;;;2.37;64.98;100643.94;5028561;28;20053;-56
2024/01/16 08:53:34;;;;;;;19.10;8.80;;;;;;;2.84;64.64;100647.50;5029736;28;20058;-60
2024/01/16 08:56:02;;;;;;;21.65;8.93;;;;;;;2.85;63.85;100641.78;5031025;28;20067;-57
2024/01/16 08:58:30;;;;;;;27.40;11.32;;;;;;;2.90;64.16;100636.38;5029182;28;20041;-55
2024/01/16 09:00:57;;;;;;;24.65;13.45;;;;;;;2.63;63.99;100643.03;5028412;28;20627;-59
2024/01/16 09:03:24;;;;;;;35.63;14.52;;;;;;;2.49;64.75;100637.25;5028758;28;20045;-60
2024/01/16 09:05:52;;;;;;;31.27;16.48;;;;;;;2.22;65.87;100631.88;5032566;28;20069;-56
2024/01/16 09:08:19;;;;;;;32.95;16.45;;;;;;;2.27;66.19;100640.06;5029196;28;20049;-58
2024/01/16 09:10:46;;;;;;;32.10;17.35;;;;;;;2.27;66.35;100631.91;5023974;28;20049;-57
2024/01/16 09:13:13;;;;;;;33.60;17.92;;;;;;;2.14;66.53;100643.22;5024053;28;20049;-59
2024/01/16 09:15:41;;;;;;;32.58;18.85;;;;;;;1.98;66.79;100655.06;5028902;28;20065;-59
2024/01/16 09:18:08;;;;;;;34.30;18.90;;;;;;;1.90;66.75;100639.22;5028149;28;20050;-55
2024/01/16 09:20:36;;;;;;;42.08;22.83;;;;;;;1.95;67.05;100649.31;5030226;28;20487;-59
2024/01/16 09:23:03;;;;;;;44.85;23.88;;;;;;;2.20;66.06;100634.03;5030163;28;20045;-58
2024/01/16 09:25:31;;;;;;;54.65;27.90;;;;;;;2.24;65.79;100637.88;5027933;28;20511;-59
2024/01/16 09:27:58;;;;;;;47.88;26.67;;;;;;;1.89;66.08;100644.91;5028943;28;20054;-59
2024/01/16 09:30:25;;;;;;;44.83;26.15;;;;;;;1.80;66.92;100639.13;5025941;28;20053;-56
2024/01/16 09:32:52;;;;;;;47.22;26.67;;;;;;;1.45;67.85;100638.78;5027701;28;20049;-59
2024/01/16 09:35:20;;;;;;;47.85;28.77;;;;;;;1.72;67.41;100641.50;5029210;28;20046;-59
2024/01/16 09:37:47;;;;;;;45.13;27.25;;;;;;;1.63;67.49;100643.03;5027914;28;20068;-60
2024/01/16 09:40:15;;;;;;;46.60;26.98;;;;;;;1.93;66.96;100646.03;5031031;28;20080;-63
2024/01/16 09:42:42;;;;;;;67.50;38.20;;;;;;;1.94;66.18;100639.53;5028860;28;20754;-59
2024/01/16 09:45:10;;;;;;;54.35;28.17;;;;;;;1.89;66.38;100628.63;5032153;28;20037;-57
2024/01/16 09:47:38;;;;;;;52.40;28.73;;;;;;;1.68;66.87;100630.34;5032285;28;20061;-57
2024/01/16 09:50:10;;;;;;;55.45;29.98;;;;;;;1.47;67.50;100628.50;5029800;28;20038;-62
2024/01/16 09:52:38;;;;;;;57.72;29.45;;;;;;;1.54;67.46;100617.44;5036997;28;20049;-57
2024/01/16 09:55:05;;;;;;;50.08;29.92;;;;;;;1.85;66.87;100614.75;5042025;28;20064;-59
2024/01/16 09:57:34;;;;;;;59.50;30.60;;;;;;;1.65;66.87;100613.75;5030266;28;20049;-59
2024/01/16 10:00:03;;;;;;;54.35;30.85;;;;;;;1.70;67.21;100622.75;5027419;28;20053;-60
2024/01/16 10:02:33;;;;;;;55.97;31.48;;;;;;;1.63;67.10;100627.59;5020590;28;20057;-59
2024/01/16 10:05:00;;;;;;;55.72;32.30;;;;;;;1.95;66.75;100617.53;5030070;28;20056;-59
2024/01/16 10:07:28;;;;;;;54.53;29.75;;;;;;;2.28;66.00;100616.44;5028104;28;20045;-58
2024/01/16 10:09:57;;;;;;;51.47;31.08;;;;;;;1.92;64.42;100611.81;5043645;28;20056;-55
2024/01/16 10:12:28;;;;;;;50.05;27.98;;;;;;;1.89;65.08;100615.03;5028218;28;20049;-59
2024/01/16 10:14:55;;;;;;;44.25;25.02;;;;;;;2.18;64.32;100608.19;4995441;28;20061;-60
2024/01/16 10:17:38;;;;;;;38.92;23.98;;;;;;;2.34;63.48;100603.72;5031000;28;20044;-60
2024/01/16 10:20:07;;;;;;;44.22;23.23;;;;;;;2.41;62.51;100605.09;5028637;28;21683;-60
2024/01/16 10:22:34;;;;;;;35.65;21.80;;;;;;;2.31;62.23;100602.31;5012710;28;20049;-59
2024/01/16 10:25:12;;;;;;;47.25;22.73;;;;;;;2.01;62.98;100607.53;5032509;28;20049;-58
2024/01/16 10:28:03;;;;;;;40.35;24.42;;;;;;;2.88;65.37;100602.34;5029550;28;20057;-59
2024/01/16 10:30:30;;;;;;;44.17;23.85;;;;;;;2.79;61.49;100601.25;5024176;28;20049;-63
2024/01/16 10:33:12;;;;;;;36.78;23.38;;;;;;;2.90;60.77;100600.19;5024751;28;20053;-60
2024/01/16 10:35:40;;;;;;;38.72;23.60;;;;;;;2.89;60.24;100596.66;5026057;28;20060;-61
2024/01/16 10:38:39;;;;;;;48.13;25.75;;;;;;;3.05;59.79;100601.06;5027368;28;20552;-60
2024/01/16 10:41:09;;;;;;;41.25;25.42;;;;;;;2.83;60.74;100595.00;5029367;28;20080;-62
2024/01/16 10:43:37;;;;;;;49.67;24.42;;;;;;;2.78;60.78;100589.53;5027870;28;20068;-62
2024/01/16 10:46:17;;;;;;;45.00;22.17;;;;;;;2.91;60.58;100596.41;5012704;28;20060;-62
2024/01/16 10:49:01;;;;;;;39.70;21.00;;;;;;;2.94;59.89;100590.41;5040665;28;20052;-62
2024/01/16 10:51:30;;;;;;;38.38;20.55;;;;;;;2.97;59.57;100584.44;5034828;28;20041;-61
2024/01/16 10:54:05;;;;;;;39.10;20.95;;;;;;;3.15;59.38;100583.97;5027500;28;20045;-62
2024/01/16 10:56:32;;;;;;;34.83;20.40;;;;;;;3.29;59.06;100566.84;5029890;28;20060;-62
2024/01/16 10:59:40;;;;;;;35.08;19.42;;;;;;;3.76;60.36;100563.09;5037187;28;20060;-62
2024/01/16 11:02:10;;;;;;;34.00;19.30;;;;;;;3.48;57.39;100561.72;5026514;28;20419;-62
2024/01/16 11:04:38;;;;;;;34.05;17.15;;;;;;;3.33;57.92;100565.22;5027537;28;20049;-61
2024/01/16 11:07:06;;;;;;;28.70;16.15;;;;;;;3.53;57.37;100567.16;5019543;28;20045;-60
2024/01/16 11:09:34;;;;;;;25.27;15.40;;;;;;;3.46;56.91;100561.16;5027935;28;20049;-62
2024/01/16 11:12:03;;;;;;;29.38;15.30;;;;;;;3.53;56.86;100561.72;5035213;28;20061;-62
2024/01/16 11:14:30;;;;;;;27.15;15.55;;;;;;;3.47;57.31;100565.50;5045512;28;20170;-62
2024/01/16 11:16:58;;;;;;;30.55;16.90;;;;;;;3.30;57.40;100560.31;5023621;28;20061;-62
2024/01/16 11:19:25;;;;;;;29.85;15.93;;;;;;;3.44;56.93;100566.88;5036621;28;20060;-62
2024/01/16 11:22:15;;;;;;;28.63;15.52;;;;;;;3.65;56.27;100561.44;5025251;28;20055;-66
2024/01/16 11:24:44;;;;;;;26.33;15.18;;;;;;;3.40;56.47;100545.88;5030395;28;20046;-62
2024/01/16 11:27:22;;;;;;;38.38;21.33;;;;;;;3.47;56.71;100541.81;5028478;28;20526;-61
2024/01/16 11:29:50;;;;;;;31.38;16.02;;;;;;;3.40;56.81;100541.28;5043521;28;20049;-59
2024/01/16 11:32:53;;;;;;;23.05;12.65;;;;;;;3.22;57.30;100543.69;5023825;28;20065;-55
2024/01/16 11:35:42;;;;;;;26.33;13.30;;;;;;;3.40;56.84;100544.00;5003658;28;20060;-58